sensor_id;sensor_type;location;lat;lon;timestamp;P1;durP1;ratioP1;P2;durP2;ratioP2
2618;SDS011;1319;52.346;13.096;2022-08-19T00:00:00;28.17;;;14.33;;
2618;SDS011;1319;52.346;13.096;2022-08-19T00:02:25;18.33;;;13.50;;
2618;SDS011;1319;52.346;13.096;2022-08-19T00:04:51;22.77;;;14.57;;
2618;SDS011;1319;52.346;13.096;2022-08-19T00:07:20;22.73;;;14.33;;
2618;SDS011;1319;52.346;13.096;2022-08-19T00:09:45;25.53;;;15.40;;
2618;SDS011;1319;52.346;13.096;2022-08-19T00:12:11;26.30;;;15.10;;
2618;SDS011;1319;52.346;13.096;2022-08-19T00:14:36;20.87;;;15.23;;
2618;SDS011;1319;52.346;13.096;2022-08-19T00:17:02;16.10;;;13.70;;
2618;SDS011;1319;52.346;13.096;2022-08-19T00:19:28;20.23;;;15.30;;
2618;SDS011;1319;52.346;13.096;2022-08-19T00:21:53;19.13;;;14.03;;
2618;SDS011;1319;52.346;13.096;2022-08-19T00:24:21;16.80;;;14.33;;
2618;SDS011;1319;52.346;13.096;2022-08-19T00:26:47;17.17;;;14.57;;
2618;SDS011;1319;52.346;13.096;2022-08-19T00:29:13;18.77;;;14.70;;
2618;SDS011;1319;52.346;13.096;2022-08-19T00:31:39;22.43;;;14.53;;
2618;SDS011;1319;52.346;13.096;2022-08-19T00:34:05;18.33;;;14.27;;
2618;SDS011;1319;52.346;13.096;2022-08-19T00:36:30;18.43;;;14.33;;
2618;SDS011;1319;52.346;13.096;2022-08-19T00:38:57;19.03;;;14.57;;
2618;SDS011;1319;52.346;13.096;2022-08-19T00:41:23;20.07;;;14.53;;
2618;SDS011;1319;52.346;13.096;2022-08-19T00:44:03;16.87;;;14.00;;
2618;SDS011;1319;52.346;13.096;2022-08-19T00:46:29;19.33;;;14.53;;
2618;SDS011;1319;52.346;13.096;2022-08-19T00:48:55;15.30;;;13.70;;
2618;SDS011;1319;52.346;13.096;2022-08-19T00:51:21;17.83;;;14.63;;
2618;SDS011;1319;52.346;13.096;2022-08-19T00:53:49;19.20;;;13.47;;
2618;SDS011;1319;52.346;13.096;2022-08-19T00:56:14;16.60;;;14.80;;
2618;SDS011;1319;52.346;13.096;2022-08-19T00:58:40;19.80;;;14.67;;
2618;SDS011;1319;52.346;13.096;2022-08-19T01:01:05;16.20;;;14.20;;
2618;SDS011;1319;52.346;13.096;2022-08-19T01:03:32;22.80;;;14.80;;
2618;SDS011;1319;52.346;13.096;2022-08-19T01:05:57;16.53;;;13.93;;
2618;SDS011;1319;52.346;13.096;2022-08-19T01:08:23;18.57;;;14.10;;
2618;SDS011;1319;52.346;13.096;2022-08-19T01:10:49;16.53;;;14.33;;
2618;SDS011;1319;52.346;13.096;2022-08-19T01:13:16;19.97;;;15.27;;
2618;SDS011;1319;52.346;13.096;2022-08-19T01:15:44;17.23;;;14.67;;
2618;SDS011;1319;52.346;13.096;2022-08-19T01:18:12;20.20;;;15.60;;
2618;SDS011;1319;52.346;13.096;2022-08-19T01:20:38;19.97;;;15.17;;
2618;SDS011;1319;52.346;13.096;2022-08-19T01:23:03;18.93;;;15.43;;
2618;SDS011;1319;52.346;13.096;2022-08-19T01:25:30;18.47;;;15.37;;
2618;SDS011;1319;52.346;13.096;2022-08-19T01:27:56;20.43;;;16.53;;
2618;SDS011;1319;52.346;13.096;2022-08-19T01:30:26;20.93;;;15.50;;
2618;SDS011;1319;52.346;13.096;2022-08-19T01:32:52;20.73;;;15.40;;
2618;SDS011;1319;52.346;13.096;2022-08-19T01:35:17;18.70;;;15.73;;
2618;SDS011;1319;52.346;13.096;2022-08-19T01:37:56;19.47;;;16.73;;
2618;SDS011;1319;52.346;13.096;2022-08-19T01:40:23;23.63;;;16.77;;
2618;SDS011;1319;52.346;13.096;2022-08-19T01:42:51;21.23;;;16.40;;
2618;SDS011;1319;52.346;13.096;2022-08-19T01:45:18;21.57;;;16.50;;
2618;SDS011;1319;52.346;13.096;2022-08-19T01:47:43;22.83;;;17.33;;
2618;SDS011;1319;52.346;13.096;2022-08-19T01:50:09;22.57;;;16.70;;
2618;SDS011;1319;52.346;13.096;2022-08-19T01:52:36;25.70;;;16.27;;
2618;SDS011;1319;52.346;13.096;2022-08-19T01:55:02;20.43;;;16.73;;
2618;SDS011;1319;52.346;13.096;2022-08-19T01:57:27;23.27;;;16.40;;
2618;SDS011;1319;52.346;13.096;2022-08-19T01:59:52;23.70;;;17.27;;
2618;SDS011;1319;52.346;13.096;2022-08-19T02:02:18;23.17;;;17.87;;
2618;SDS011;1319;52.346;13.096;2022-08-19T02:04:44;22.30;;;16.87;;
2618;SDS011;1319;52.346;13.096;2022-08-19T02:07:10;25.03;;;18.43;;
2618;SDS011;1319;52.346;13.096;2022-08-19T02:09:35;27.47;;;18.87;;
2618;SDS011;1319;52.346;13.096;2022-08-19T02:12:01;28.17;;;17.77;;
2618;SDS011;1319;52.346;13.096;2022-08-19T02:14:26;24.30;;;18.13;;
2618;SDS011;1319;52.346;13.096;2022-08-19T02:16:51;26.97;;;19.13;;
2618;SDS011;1319;52.346;13.096;2022-08-19T02:19:17;26.60;;;18.80;;
2618;SDS011;1319;52.346;13.096;2022-08-19T02:21:42;25.57;;;18.67;;
2618;SDS011;1319;52.346;13.096;2022-08-19T02:24:08;24.70;;;19.00;;
2618;SDS011;1319;52.346;13.096;2022-08-19T02:26:34;20.47;;;17.37;;
2618;SDS011;1319;52.346;13.096;2022-08-19T02:28:59;26.40;;;17.63;;
2618;SDS011;1319;52.346;13.096;2022-08-19T02:31:25;24.67;;;18.67;;
2618;SDS011;1319;52.346;13.096;2022-08-19T02:33:50;24.87;;;17.67;;
2618;SDS011;1319;52.346;13.096;2022-08-19T02:36:17;23.40;;;16.87;;
2618;SDS011;1319;52.346;13.096;2022-08-19T02:38:42;23.10;;;16.67;;
2618;SDS011;1319;52.346;13.096;2022-08-19T02:41:13;22.47;;;15.40;;
2618;SDS011;1319;52.346;13.096;2022-08-19T02:43:39;18.37;;;14.90;;
2618;SDS011;1319;52.346;13.096;2022-08-19T02:46:18;19.53;;;15.70;;
2618;SDS011;1319;52.346;13.096;2022-08-19T02:48:46;21.77;;;16.70;;
2618;SDS011;1319;52.346;13.096;2022-08-19T02:51:15;20.83;;;16.17;;
2618;SDS011;1319;52.346;13.096;2022-08-19T02:53:40;18.57;;;15.97;;
2618;SDS011;1319;52.346;13.096;2022-08-19T02:56:06;23.53;;;17.23;;
2618;SDS011;1319;52.346;13.096;2022-08-19T02:58:31;22.73;;;16.43;;
2618;SDS011;1319;52.346;13.096;2022-08-19T03:00:56;23.40;;;16.63;;
2618;SDS011;1319;52.346;13.096;2022-08-19T03:03:22;19.17;;;16.53;;
2618;SDS011;1319;52.346;13.096;2022-08-19T03:05:47;24.43;;;17.77;;
2618;SDS011;1319;52.346;13.096;2022-08-19T03:08:13;20.73;;;16.93;;
2618;SDS011;1319;52.346;13.096;2022-08-19T03:10:41;22.70;;;17.93;;
2618;SDS011;1319;52.346;13.096;2022-08-19T03:13:08;24.33;;;17.03;;
2618;SDS011;1319;52.346;13.096;2022-08-19T03:15:34;21.33;;;17.00;;
2618;SDS011;1319;52.346;13.096;2022-08-19T03:17:59;24.23;;;18.30;;
2618;SDS011;1319;52.346;13.096;2022-08-19T03:20:24;23.60;;;18.50;;
2618;SDS011;1319;52.346;13.096;2022-08-19T03:22:51;23.53;;;17.57;;
2618;SDS011;1319;52.346;13.096;2022-08-19T03:25:16;23.33;;;18.30;;
2618;SDS011;1319;52.346;13.096;2022-08-19T03:27:42;27.50;;;18.50;;
2618;SDS011;1319;52.346;13.096;2022-08-19T03:30:07;21.07;;;17.83;;
2618;SDS011;1319;52.346;13.096;2022-08-19T03:32:32;21.27;;;17.63;;
2618;SDS011;1319;52.346;13.096;2022-08-19T03:34:58;21.87;;;17.00;;
2618;SDS011;1319;52.346;13.096;2022-08-19T03:37:23;23.20;;;18.37;;
2618;SDS011;1319;52.346;13.096;2022-08-19T03:39:48;22.93;;;17.43;;
2618;SDS011;1319;52.346;13.096;2022-08-19T03:42:13;28.83;;;18.33;;
2618;SDS011;1319;52.346;13.096;2022-08-19T03:44:40;26.53;;;18.57;;
2618;SDS011;1319;52.346;13.096;2022-08-19T03:47:07;26.17;;;18.70;;
2618;SDS011;1319;52.346;13.096;2022-08-19T03:49:32;25.00;;;19.00;;
2618;SDS011;1319;52.346;13.096;2022-08-19T03:51:59;24.50;;;18.50;;
2618;SDS011;1319;52.346;13.096;2022-08-19T03:54:29;22.87;;;17.50;;
2618;SDS011;1319;52.346;13.096;2022-08-19T03:56:55;23.77;;;17.83;;
2618;SDS011;1319;52.346;13.096;2022-08-19T03:59:29;24.93;;;18.00;;
2618;SDS011;1319;52.346;13.096;2022-08-19T04:01:55;28.53;;;19.57;;
2618;SDS011;1319;52.346;13.096;2022-08-19T04:04:20;22.67;;;18.17;;
2618;SDS011;1319;52.346;13.096;2022-08-19T04:06:46;22.73;;;17.80;;
2618;SDS011;1319;52.346;13.096;2022-08-19T04:09:12;27.03;;;19.43;;
2618;SDS011;1319;52.346;13.096;2022-08-19T04:11:39;27.37;;;18.83;;
2618;SDS011;1319;52.346;13.096;2022-08-19T04:14:07;29.20;;;20.53;;
2618;SDS011;1319;52.346;13.096;2022-08-19T04:16:33;26.60;;;19.47;;
2618;SDS011;1319;52.346;13.096;2022-08-19T04:18:59;28.97;;;19.00;;
2618;SDS011;1319;52.346;13.096;2022-08-19T04:21:25;31.07;;;20.93;;
2618;SDS011;1319;52.346;13.096;2022-08-19T04:23:51;26.93;;;19.93;;
2618;SDS011;1319;52.346;13.096;2022-08-19T04:26:18;25.83;;;20.77;;
2618;SDS011;1319;52.346;13.096;2022-08-19T04:28:44;27.27;;;20.90;;
2618;SDS011;1319;52.346;13.096;2022-08-19T04:31:17;26.40;;;19.67;;
2618;SDS011;1319;52.346;13.096;2022-08-19T04:33:42;27.73;;;20.40;;
2618;SDS011;1319;52.346;13.096;2022-08-19T04:36:08;27.63;;;20.83;;
2618;SDS011;1319;52.346;13.096;2022-08-19T04:38:34;27.73;;;20.73;;
2618;SDS011;1319;52.346;13.096;2022-08-19T04:41:01;27.33;;;21.27;;
2618;SDS011;1319;52.346;13.096;2022-08-19T04:43:46;27.50;;;19.73;;
2618;SDS011;1319;52.346;13.096;2022-08-19T04:46:13;25.53;;;20.23;;
2618;SDS011;1319;52.346;13.096;2022-08-19T04:48:39;24.57;;;19.00;;
2618;SDS011;1319;52.346;13.096;2022-08-19T04:51:08;25.53;;;19.77;;
2618;SDS011;1319;52.346;13.096;2022-08-19T04:53:34;23.83;;;18.53;;
2618;SDS011;1319;52.346;13.096;2022-08-19T04:56:11;25.33;;;19.07;;
2618;SDS011;1319;52.346;13.096;2022-08-19T04:58:37;23.93;;;19.00;;
2618;SDS011;1319;52.346;13.096;2022-08-19T05:01:03;21.37;;;17.87;;
2618;SDS011;1319;52.346;13.096;2022-08-19T05:03:29;23.10;;;17.30;;
2618;SDS011;1319;52.346;13.096;2022-08-19T05:05:59;21.30;;;15.77;;
2618;SDS011;1319;52.346;13.096;2022-08-19T05:08:28;20.93;;;16.23;;
2618;SDS011;1319;52.346;13.096;2022-08-19T05:10:54;18.20;;;15.50;;
2618;SDS011;1319;52.346;13.096;2022-08-19T05:13:19;18.33;;;15.60;;
2618;SDS011;1319;52.346;13.096;2022-08-19T05:15:52;20.50;;;16.13;;
2618;SDS011;1319;52.346;13.096;2022-08-19T05:18:18;18.33;;;14.93;;
2618;SDS011;1319;52.346;13.096;2022-08-19T05:21:05;17.07;;;14.40;;
2618;SDS011;1319;52.346;13.096;2022-08-19T05:23:48;15.67;;;14.07;;
2618;SDS011;1319;52.346;13.096;2022-08-19T05:26:14;16.03;;;14.33;;
2618;SDS011;1319;52.346;13.096;2022-08-19T05:28:39;17.60;;;13.70;;
2618;SDS011;1319;52.346;13.096;2022-08-19T05:31:04;15.60;;;14.00;;
2618;SDS011;1319;52.346;13.096;2022-08-19T05:33:29;18.33;;;14.20;;
2618;SDS011;1319;52.346;13.096;2022-08-19T05:35:55;18.57;;;14.13;;
2618;SDS011;1319;52.346;13.096;2022-08-19T05:38:20;15.07;;;13.47;;
2618;SDS011;1319;52.346;13.096;2022-08-19T05:40:46;16.03;;;13.97;;
2618;SDS011;1319;52.346;13.096;2022-08-19T05:43:13;15.57;;;13.87;;
2618;SDS011;1319;52.346;13.096;2022-08-19T05:45:41;16.57;;;14.53;;
2618;SDS011;1319;52.346;13.096;2022-08-19T05:48:07;15.87;;;13.33;;
2618;SDS011;1319;52.346;13.096;2022-08-19T05:50:32;16.37;;;13.87;;
2618;SDS011;1319;52.346;13.096;2022-08-19T05:52:57;16.37;;;13.63;;
2618;SDS011;1319;52.346;13.096;2022-08-19T05:55:23;16.43;;;13.60;;
2618;SDS011;1319;52.346;13.096;2022-08-19T05:57:48;17.60;;;14.27;;
2618;SDS011;1319;52.346;13.096;2022-08-19T06:00:14;15.87;;;13.40;;
2618;SDS011;1319;52.346;13.096;2022-08-19T06:02:39;16.17;;;13.87;;
2618;SDS011;1319;52.346;13.096;2022-08-19T06:05:05;15.13;;;13.48;;
2618;SDS011;1319;52.346;13.096;2022-08-19T06:07:33;18.33;;;14.35;;
2618;SDS011;1319;52.346;13.096;2022-08-19T06:09:58;15.20;;;13.60;;
2618;SDS011;1319;52.346;13.096;2022-08-19T06:12:24;16.77;;;13.03;;
2618;SDS011;1319;52.346;13.096;2022-08-19T06:14:55;15.32;;;13.07;;
2618;SDS011;1319;52.346;13.096;2022-08-19T06:17:20;18.67;;;13.57;;
2618;SDS011;1319;52.346;13.096;2022-08-19T06:19:47;15.15;;;13.32;;
2618;SDS011;1319;52.346;13.096;2022-08-19T06:22:12;14.90;;;13.38;;
2618;SDS011;1319;52.346;13.096;2022-08-19T06:24:38;16.25;;;13.48;;
2618;SDS011;1319;52.346;13.096;2022-08-19T06:27:03;14.82;;;13.25;;
2618;SDS011;1319;52.346;13.096;2022-08-19T06:29:30;15.07;;;13.48;;
2618;SDS011;1319;52.346;13.096;2022-08-19T06:31:57;16.40;;;14.02;;
2618;SDS011;1319;52.346;13.096;2022-08-19T06:34:23;15.55;;;13.85;;
2618;SDS011;1319;52.346;13.096;2022-08-19T06:36:49;18.25;;;14.30;;
2618;SDS011;1319;52.346;13.096;2022-08-19T06:39:16;17.98;;;14.35;;
2618;SDS011;1319;52.346;13.096;2022-08-19T06:41:44;20.85;;;14.20;;
2618;SDS011;1319;52.346;13.096;2022-08-19T06:44:09;20.20;;;14.90;;
2618;SDS011;1319;52.346;13.096;2022-08-19T06:46:35;16.48;;;14.77;;
2618;SDS011;1319;52.346;13.096;2022-08-19T06:49:00;15.70;;;14.00;;
2618;SDS011;1319;52.346;13.096;2022-08-19T06:51:25;16.83;;;13.93;;
2618;SDS011;1319;52.346;13.096;2022-08-19T06:53:51;15.63;;;13.93;;
2618;SDS011;1319;52.346;13.096;2022-08-19T06:56:18;14.80;;;13.30;;
2618;SDS011;1319;52.346;13.096;2022-08-19T06:58:44;17.70;;;14.18;;
2618;SDS011;1319;52.346;13.096;2022-08-19T07:01:10;15.43;;;13.77;;
2618;SDS011;1319;52.346;13.096;2022-08-19T07:03:36;16.33;;;14.30;;
2618;SDS011;1319;52.346;13.096;2022-08-19T07:06:12;18.23;;;14.75;;
2618;SDS011;1319;52.346;13.096;2022-08-19T07:08:40;17.35;;;14.05;;
2618;SDS011;1319;52.346;13.096;2022-08-19T07:11:09;15.25;;;13.70;;
2618;SDS011;1319;52.346;13.096;2022-08-19T07:13:35;16.42;;;13.23;;
2618;SDS011;1319;52.346;13.096;2022-08-19T07:16:08;17.10;;;14.30;;
2618;SDS011;1319;52.346;13.096;2022-08-19T07:18:34;15.25;;;13.50;;
2618;SDS011;1319;52.346;13.096;2022-08-19T07:21:16;14.65;;;13.15;;
2618;SDS011;1319;52.346;13.096;2022-08-19T07:23:43;22.65;;;13.80;;
2618;SDS011;1319;52.346;13.096;2022-08-19T07:26:10;14.68;;;13.02;;
2618;SDS011;1319;52.346;13.096;2022-08-19T07:28:35;16.05;;;13.05;;
2618;SDS011;1319;52.346;13.096;2022-08-19T07:31:05;16.25;;;14.25;;
2618;SDS011;1319;52.346;13.096;2022-08-19T07:33:30;20.13;;;14.23;;
2618;SDS011;1319;52.346;13.096;2022-08-19T07:35:57;15.90;;;14.13;;
2618;SDS011;1319;52.346;13.096;2022-08-19T07:38:22;20.00;;;13.77;;
2618;SDS011;1319;52.346;13.096;2022-08-19T07:40:47;16.58;;;14.40;;
2618;SDS011;1319;52.346;13.096;2022-08-19T07:43:13;16.60;;;14.00;;
2618;SDS011;1319;52.346;13.096;2022-08-19T07:45:38;15.40;;;12.77;;
2618;SDS011;1319;52.346;13.096;2022-08-19T07:48:03;15.60;;;13.90;;
2618;SDS011;1319;52.346;13.096;2022-08-19T07:50:29;18.77;;;14.18;;
2618;SDS011;1319;52.346;13.096;2022-08-19T07:52:54;20.65;;;14.35;;
2618;SDS011;1319;52.346;13.096;2022-08-19T07:55:21;17.73;;;13.77;;
2618;SDS011;1319;52.346;13.096;2022-08-19T07:57:47;14.95;;;13.43;;
2618;SDS011;1319;52.346;13.096;2022-08-19T08:00:12;15.18;;;13.60;;
2618;SDS011;1319;52.346;13.096;2022-08-19T08:02:38;15.43;;;13.25;;
2618;SDS011;1319;52.346;13.096;2022-08-19T08:05:04;16.00;;;13.80;;
2618;SDS011;1319;52.346;13.096;2022-08-19T08:07:47;15.80;;;13.63;;
2618;SDS011;1319;52.346;13.096;2022-08-19T08:10:31;15.52;;;13.88;;
2618;SDS011;1319;52.346;13.096;2022-08-19T08:12:57;14.50;;;12.80;;
2618;SDS011;1319;52.346;13.096;2022-08-19T08:15:22;15.57;;;13.93;;
2618;SDS011;1319;52.346;13.096;2022-08-19T08:17:47;15.30;;;13.80;;
2618;SDS011;1319;52.346;13.096;2022-08-19T08:20:14;15.35;;;13.77;;
2618;SDS011;1319;52.346;13.096;2022-08-19T08:22:42;18.38;;;15.07;;
2618;SDS011;1319;52.346;13.096;2022-08-19T08:25:26;18.20;;;16.00;;
2618;SDS011;1319;52.346;13.096;2022-08-19T08:27:51;17.83;;;15.88;;
2618;SDS011;1319;52.346;13.096;2022-08-19T08:30:18;17.48;;;15.65;;
2618;SDS011;1319;52.346;13.096;2022-08-19T08:32:44;21.98;;;17.20;;
2618;SDS011;1319;52.346;13.096;2022-08-19T08:35:11;21.33;;;17.33;;
2618;SDS011;1319;52.346;13.096;2022-08-19T08:37:36;20.27;;;17.33;;
2618;SDS011;1319;52.346;13.096;2022-08-19T08:40:05;20.92;;;16.70;;
2618;SDS011;1319;52.346;13.096;2022-08-19T08:42:32;21.27;;;17.15;;
2618;SDS011;1319;52.346;13.096;2022-08-19T08:45:00;19.83;;;17.42;;
2618;SDS011;1319;52.346;13.096;2022-08-19T08:47:28;19.02;;;17.08;;
2618;SDS011;1319;52.346;13.096;2022-08-19T08:52:26;19.45;;;17.35;;
2618;SDS011;1319;52.346;13.096;2022-08-19T08:54:53;18.95;;;16.92;;
2618;SDS011;1319;52.346;13.096;2022-08-19T08:57:20;21.13;;;18.15;;
2618;SDS011;1319;52.346;13.096;2022-08-19T08:59:48;20.40;;;17.63;;
2618;SDS011;1319;52.346;13.096;2022-08-19T09:02:16;21.05;;;18.10;;
2618;SDS011;1319;52.346;13.096;2022-08-19T09:04:41;21.25;;;18.30;;
2618;SDS011;1319;52.346;13.096;2022-08-19T09:09:38;20.70;;;18.45;;
2618;SDS011;1319;52.346;13.096;2022-08-19T09:12:07;22.20;;;18.50;;
2618;SDS011;1319;52.346;13.096;2022-08-19T09:14:45;21.88;;;18.60;;
2618;SDS011;1319;52.346;13.096;2022-08-19T09:17:11;25.65;;;19.65;;
2618;SDS011;1319;52.346;13.096;2022-08-19T09:20:38;23.63;;;18.95;;
2618;SDS011;1319;52.346;13.096;2022-08-19T09:22:33;24.52;;;21.00;;
2618;SDS011;1319;52.346;13.096;2022-08-19T09:24:58;24.00;;;19.95;;
2618;SDS011;1319;52.346;13.096;2022-08-19T09:27:24;22.13;;;19.55;;
2618;SDS011;1319;52.346;13.096;2022-08-19T09:29:50;23.02;;;20.50;;
2618;SDS011;1319;52.346;13.096;2022-08-19T09:32:16;29.40;;;22.35;;
2618;SDS011;1319;52.346;13.096;2022-08-19T09:34:42;29.63;;;22.98;;
2618;SDS011;1319;52.346;13.096;2022-08-19T09:37:08;26.48;;;22.50;;
2618;SDS011;1319;52.346;13.096;2022-08-19T09:39:33;30.15;;;22.85;;
2618;SDS011;1319;52.346;13.096;2022-08-19T09:41:58;30.30;;;23.13;;
2618;SDS011;1319;52.346;13.096;2022-08-19T09:44:23;26.50;;;21.98;;
2618;SDS011;1319;52.346;13.096;2022-08-19T09:46:49;28.13;;;23.02;;
2618;SDS011;1319;52.346;13.096;2022-08-19T09:49:17;29.33;;;23.15;;
2618;SDS011;1319;52.346;13.096;2022-08-19T09:51:43;31.92;;;24.75;;
2618;SDS011;1319;52.346;13.096;2022-08-19T09:54:08;31.48;;;24.85;;
2618;SDS011;1319;52.346;13.096;2022-08-19T09:56:33;31.40;;;26.05;;
2618;SDS011;1319;52.346;13.096;2022-08-19T09:58:59;34.60;;;25.23;;
2618;SDS011;1319;52.346;13.096;2022-08-19T10:01:25;34.40;;;26.27;;
2618;SDS011;1319;52.346;13.096;2022-08-19T10:03:52;36.67;;;28.05;;
2618;SDS011;1319;52.346;13.096;2022-08-19T10:06:18;36.33;;;27.98;;
2618;SDS011;1319;52.346;13.096;2022-08-19T10:08:43;36.83;;;27.85;;
2618;SDS011;1319;52.346;13.096;2022-08-19T10:11:09;38.20;;;27.50;;
2618;SDS011;1319;52.346;13.096;2022-08-19T10:13:34;36.58;;;26.10;;
2618;SDS011;1319;52.346;13.096;2022-08-19T10:16:05;36.90;;;27.38;;
2618;SDS011;1319;52.346;13.096;2022-08-19T10:18:31;35.63;;;26.52;;
2618;SDS011;1319;52.346;13.096;2022-08-19T10:21:04;36.17;;;25.55;;
2618;SDS011;1319;52.346;13.096;2022-08-19T10:23:32;35.83;;;26.98;;
2618;SDS011;1319;52.346;13.096;2022-08-19T10:25:59;39.22;;;28.55;;
2618;SDS011;1319;52.346;13.096;2022-08-19T10:28:24;38.33;;;27.35;;
2618;SDS011;1319;52.346;13.096;2022-08-19T10:30:49;37.13;;;26.67;;
2618;SDS011;1319;52.346;13.096;2022-08-19T10:33:14;37.10;;;28.08;;
2618;SDS011;1319;52.346;13.096;2022-08-19T10:35:40;34.92;;;26.83;;
2618;SDS011;1319;52.346;13.096;2022-08-19T10:38:05;34.97;;;26.20;;
2618;SDS011;1319;52.346;13.096;2022-08-19T10:40:30;40.08;;;29.02;;
2618;SDS011;1319;52.346;13.096;2022-08-19T10:42:55;38.67;;;27.53;;
2618;SDS011;1319;52.346;13.096;2022-08-19T10:45:21;41.22;;;29.15;;
2618;SDS011;1319;52.346;13.096;2022-08-19T10:47:51;42.55;;;28.20;;
2618;SDS011;1319;52.346;13.096;2022-08-19T10:50:17;40.92;;;28.20;;
2618;SDS011;1319;52.346;13.096;2022-08-19T10:53:03;41.97;;;29.50;;
2618;SDS011;1319;52.346;13.096;2022-08-19T10:55:29;41.88;;;29.92;;
2618;SDS011;1319;52.346;13.096;2022-08-19T10:58:17;41.23;;;29.70;;
2618;SDS011;1319;52.346;13.096;2022-08-19T11:00:51;43.67;;;30.90;;
2618;SDS011;1319;52.346;13.096;2022-08-19T11:03:16;45.65;;;30.88;;
2618;SDS011;1319;52.346;13.096;2022-08-19T11:05:41;40.20;;;29.88;;
2618;SDS011;1319;52.346;13.096;2022-08-19T11:08:08;42.00;;;29.27;;
2618;SDS011;1319;52.346;13.096;2022-08-19T11:10:36;44.95;;;29.92;;
2618;SDS011;1319;52.346;13.096;2022-08-19T11:13:01;42.92;;;29.33;;
2618;SDS011;1319;52.346;13.096;2022-08-19T11:15:27;40.67;;;28.45;;
2618;SDS011;1319;52.346;13.096;2022-08-19T11:17:53;41.15;;;29.45;;
2618;SDS011;1319;52.346;13.096;2022-08-19T11:20:19;43.92;;;30.13;;
2618;SDS011;1319;52.346;13.096;2022-08-19T11:22:45;42.45;;;29.85;;
2618;SDS011;1319;52.346;13.096;2022-08-19T11:25:10;37.08;;;27.63;;
2618;SDS011;1319;52.346;13.096;2022-08-19T11:27:39;45.08;;;29.67;;
2618;SDS011;1319;52.346;13.096;2022-08-19T11:30:06;37.67;;;26.90;;
2618;SDS011;1319;52.346;13.096;2022-08-19T11:32:32;39.03;;;27.70;;
2618;SDS011;1319;52.346;13.096;2022-08-19T11:34:58;38.50;;;27.67;;
2618;SDS011;1319;52.346;13.096;2022-08-19T11:37:23;42.83;;;27.55;;
2618;SDS011;1319;52.346;13.096;2022-08-19T11:39:49;40.70;;;27.73;;
2618;SDS011;1319;52.346;13.096;2022-08-19T11:42:14;38.33;;;27.95;;
2618;SDS011;1319;52.346;13.096;2022-08-19T11:44:58;41.67;;;28.40;;
2618;SDS011;1319;52.346;13.096;2022-08-19T11:47:23;39.22;;;27.67;;
2618;SDS011;1319;52.346;13.096;2022-08-19T11:49:48;43.40;;;27.70;;
2618;SDS011;1319;52.346;13.096;2022-08-19T11:52:14;39.72;;;27.08;;
2618;SDS011;1319;52.346;13.096;2022-08-19T11:54:39;36.70;;;24.58;;
2618;SDS011;1319;52.346;13.096;2022-08-19T11:57:04;36.70;;;25.50;;
2618;SDS011;1319;52.346;13.096;2022-08-19T11:59:30;43.60;;;27.35;;
2618;SDS011;1319;52.346;13.096;2022-08-19T12:01:55;39.42;;;27.02;;
2618;SDS011;1319;52.346;13.096;2022-08-19T12:04:21;40.80;;;25.65;;
2618;SDS011;1319;52.346;13.096;2022-08-19T12:06:46;35.03;;;25.30;;
2618;SDS011;1319;52.346;13.096;2022-08-19T12:09:11;36.22;;;25.20;;
2618;SDS011;1319;52.346;13.096;2022-08-19T12:11:37;35.50;;;25.48;;
2618;SDS011;1319;52.346;13.096;2022-08-19T12:14:03;36.00;;;25.45;;
2618;SDS011;1319;52.346;13.096;2022-08-19T12:16:28;33.58;;;25.00;;
2618;SDS011;1319;52.346;13.096;2022-08-19T12:18:55;32.47;;;23.38;;
2618;SDS011;1319;52.346;13.096;2022-08-19T12:21:25;31.85;;;23.60;;
2618;SDS011;1319;52.346;13.096;2022-08-19T12:23:52;31.65;;;23.27;;
2618;SDS011;1319;52.346;13.096;2022-08-19T12:26:17;32.10;;;23.80;;
2618;SDS011;1319;52.346;13.096;2022-08-19T12:28:43;31.63;;;23.05;;
2618;SDS011;1319;52.346;13.096;2022-08-19T12:31:09;33.08;;;21.27;;
2618;SDS011;1319;52.346;13.096;2022-08-19T12:33:37;28.67;;;22.05;;
2618;SDS011;1319;52.346;13.096;2022-08-19T12:36:03;30.38;;;22.30;;
2618;SDS011;1319;52.346;13.096;2022-08-19T12:38:28;29.02;;;21.50;;
2618;SDS011;1319;52.346;13.096;2022-08-19T12:40:54;30.92;;;20.23;;
2618;SDS011;1319;52.346;13.096;2022-08-19T12:43:19;27.20;;;19.98;;
2618;SDS011;1319;52.346;13.096;2022-08-19T12:45:47;29.73;;;18.77;;
2618;SDS011;1319;52.346;13.096;2022-08-19T12:48:13;26.35;;;19.35;;
2618;SDS011;1319;52.346;13.096;2022-08-19T12:50:39;23.90;;;19.35;;
2618;SDS011;1319;52.346;13.096;2022-08-19T12:53:05;24.65;;;18.88;;
2618;SDS011;1319;52.346;13.096;2022-08-19T12:55:30;21.75;;;17.80;;
2618;SDS011;1319;52.346;13.096;2022-08-19T12:57:55;22.50;;;17.92;;
2618;SDS011;1319;52.346;13.096;2022-08-19T13:00:21;23.17;;;17.90;;
2618;SDS011;1319;52.346;13.096;2022-08-19T13:02:48;23.88;;;17.42;;
2618;SDS011;1319;52.346;13.096;2022-08-19T13:05:15;20.55;;;17.42;;
2618;SDS011;1319;52.346;13.096;2022-08-19T13:07:41;20.35;;;16.67;;
2618;SDS011;1319;52.346;13.096;2022-08-19T13:10:09;19.35;;;17.35;;
2618;SDS011;1319;52.346;13.096;2022-08-19T13:12:36;22.23;;;17.98;;
2618;SDS011;1319;52.346;13.096;2022-08-19T13:15:02;23.05;;;17.35;;
2618;SDS011;1319;52.346;13.096;2022-08-19T13:17:27;22.15;;;17.83;;
2618;SDS011;1319;52.346;13.096;2022-08-19T13:19:52;19.13;;;16.15;;
2618;SDS011;1319;52.346;13.096;2022-08-19T13:22:18;22.35;;;16.90;;
2618;SDS011;1319;52.346;13.096;2022-08-19T13:24:43;22.40;;;16.27;;
2618;SDS011;1319;52.346;13.096;2022-08-19T13:27:09;21.75;;;16.70;;
2618;SDS011;1319;52.346;13.096;2022-08-19T13:29:34;19.02;;;15.85;;
2618;SDS011;1319;52.346;13.096;2022-08-19T13:32:18;22.10;;;16.25;;
2618;SDS011;1319;52.346;13.096;2022-08-19T13:35:02;18.50;;;16.33;;
2618;SDS011;1319;52.346;13.096;2022-08-19T13:37:27;19.77;;;16.48;;
2618;SDS011;1319;52.346;13.096;2022-08-19T13:40:12;21.60;;;16.80;;
2618;SDS011;1319;52.346;13.096;2022-08-19T13:42:40;20.98;;;16.20;;
2618;SDS011;1319;52.346;13.096;2022-08-19T13:45:05;20.20;;;15.88;;
2618;SDS011;1319;52.346;13.096;2022-08-19T13:47:31;17.48;;;15.13;;
2618;SDS011;1319;52.346;13.096;2022-08-19T13:49:57;20.00;;;15.20;;
2618;SDS011;1319;52.346;13.096;2022-08-19T13:52:22;16.88;;;14.70;;
2618;SDS011;1319;52.346;13.096;2022-08-19T13:54:47;20.13;;;14.82;;
2618;SDS011;1319;52.346;13.096;2022-08-19T13:57:13;17.40;;;13.75;;
2618;SDS011;1319;52.346;13.096;2022-08-19T13:59:38;22.67;;;15.85;;
2618;SDS011;1319;52.346;13.096;2022-08-19T14:02:03;17.77;;;15.35;;
2618;SDS011;1319;52.346;13.096;2022-08-19T14:04:30;18.45;;;15.05;;
2618;SDS011;1319;52.346;13.096;2022-08-19T14:06:55;18.23;;;15.45;;
2618;SDS011;1319;52.346;13.096;2022-08-19T14:09:21;19.15;;;15.35;;
2618;SDS011;1319;52.346;13.096;2022-08-19T14:11:46;22.27;;;15.38;;
2618;SDS011;1319;52.346;13.096;2022-08-19T14:14:11;19.17;;;14.82;;
2618;SDS011;1319;52.346;13.096;2022-08-19T14:16:37;18.95;;;15.98;;
2618;SDS011;1319;52.346;13.096;2022-08-19T14:19:02;19.77;;;15.93;;
2618;SDS011;1319;52.346;13.096;2022-08-19T14:21:27;21.27;;;15.48;;
2618;SDS011;1319;52.346;13.096;2022-08-19T14:23:53;17.70;;;15.55;;
2618;SDS011;1319;52.346;13.096;2022-08-19T14:26:19;20.40;;;15.10;;
2618;SDS011;1319;52.346;13.096;2022-08-19T14:28:44;18.38;;;15.73;;
2618;SDS011;1319;52.346;13.096;2022-08-19T14:31:10;18.70;;;15.55;;
2618;SDS011;1319;52.346;13.096;2022-08-19T14:33:35;18.45;;;14.63;;
2618;SDS011;1319;52.346;13.096;2022-08-19T14:36:01;16.70;;;14.55;;